createdAt,value
2023-01-07T00:09:45.101Z,62.78
2023-01-07T00:19:48.197Z,64.35
2023-01-07T00:29:52.662Z,64.19
2023-01-07T00:39:55.819Z,65.07
2023-01-07T00:50:00.306Z,64.61
2023-01-07T01:00:03.537Z,64.91
2023-01-07T01:10:10.116Z,64.99
2023-01-07T01:20:15.232Z,64.39
2023-01-07T01:30:19.935Z,65.24
2023-01-07T01:40:23.061Z,64.98
2023-01-07T01:50:29.474Z,64.59
2023-01-07T02:00:34.061Z,65.11
2023-01-07T02:10:39.403Z,66.00
2023-01-07T02:20:49.077Z,65.11
2023-01-07T02:31:26.133Z,64.94
2023-01-07T02:41:39.029Z,64.34
2023-01-07T02:51:42.627Z,64.11
2023-01-07T03:01:57.429Z,63.90
2023-01-07T03:12:07.043Z,64.52
2023-01-07T03:22:11.762Z,65.44
2023-01-07T03:32:17.595Z,65.03
2023-01-07T03:42:42.839Z,64.33
2023-01-07T03:52:46.121Z,64.32
2023-01-07T04:02:50.607Z,64.27
2023-01-07T04:12:53.671Z,64.05
2023-01-07T04:22:58.093Z,64.66
2023-01-07T04:33:01.424Z,64.98
2023-01-07T04:43:05.901Z,64.68
2023-01-07T04:53:09.186Z,64.22
2023-01-07T05:03:13.722Z,64.57
2023-01-07T05:13:17.100Z,66.24
2023-01-07T05:23:21.557Z,64.64
2023-01-07T05:33:24.640Z,65.31
2023-01-07T05:43:29.166Z,65.41
2023-01-07T05:53:32.299Z,65.01
2023-01-07T06:03:36.862Z,64.88
2023-01-07T06:13:39.998Z,65.07
2023-01-07T06:23:44.556Z,65.06
2023-01-07T06:33:47.656Z,65.06
2023-01-07T06:43:52.154Z,65.62
2023-01-07T06:53:55.359Z,65.54
2023-01-07T07:03:59.930Z,65.99
2023-01-07T07:14:04.121Z,66.56
2023-01-07T07:24:08.636Z,65.39
2023-01-07T07:34:11.956Z,64.83
2023-01-07T07:44:16.634Z,64.08
2023-01-07T07:54:21.275Z,61.71
2023-01-07T08:04:28.818Z,62.06
2023-01-07T08:14:32.263Z,62.67
2023-01-07T08:24:37.082Z,63.11
2023-01-07T08:34:40.212Z,64.94
2023-01-07T08:44:44.631Z,64.67
2023-01-07T08:54:48.245Z,65.90
2023-01-07T09:04:52.740Z,66.08
2023-01-07T09:14:55.915Z,65.19
2023-01-07T09:25:00.410Z,64.37
2023-01-07T09:35:03.656Z,64.19
2023-01-07T09:45:15.608Z,64.21
2023-01-07T09:55:22.356Z,63.71
2023-01-07T10:05:34.645Z,62.98
2023-01-07T10:15:44.325Z,61.90
2023-01-07T10:25:50.214Z,61.80
2023-01-07T10:35:59.003Z,59.97
2023-01-07T10:46:23.975Z,59.74
2023-01-07T10:56:30.724Z,59.72
2023-01-07T11:06:40.021Z,58.63
2023-01-07T11:16:48.875Z,58.44
2023-01-07T11:26:54.057Z,58.11
2023-01-07T11:36:57.507Z,57.60
2023-01-07T11:47:02.133Z,57.64
2023-01-07T11:57:17.691Z,57.40
2023-01-07T12:07:23.824Z,56.87
2023-01-07T12:17:29.311Z,57.22
2023-01-07T12:27:39.971Z,57.02
2023-01-07T12:37:45.404Z,57.56
2023-01-07T12:47:52.336Z,57.10
2023-01-07T12:58:06.415Z,56.78
2023-01-07T13:08:16.017Z,57.60
2023-01-07T13:18:20.417Z,58.07
2023-01-07T13:29:01.292Z,57.53
2023-01-07T13:39:28.658Z,58.65
2023-01-07T13:49:35.621Z,61.68
2023-01-07T13:59:49.222Z,62.41
2023-01-07T14:09:56.508Z,61.25
2023-01-07T14:20:04.574Z,62.93
2023-01-07T14:30:20.561Z,61.35
2023-01-07T14:40:53.753Z,61.25
2023-01-07T14:51:10.569Z,61.89
2023-01-07T15:01:38.210Z,62.10
2023-01-07T15:12:02.472Z,60.56
2023-01-07T15:22:12.581Z,63.27
2023-01-07T15:32:27.259Z,60.28
2023-01-07T15:42:32.909Z,60.12
2023-01-07T15:52:37.428Z,60.59
2023-01-07T16:02:43.402Z,64.78
2023-01-07T16:12:49.976Z,70.41
2023-01-07T16:23:00.559Z,72.91
2023-01-07T16:33:06.259Z,70.87
2023-01-07T16:43:31.558Z,69.01
2023-01-07T16:53:36.588Z,69.39
2023-01-07T17:03:48.913Z,68.61
2023-01-07T17:13:56.201Z,68.78
2023-01-07T17:23:59.815Z,67.76
2023-01-07T17:34:04.335Z,70.29
2023-01-07T17:44:11.463Z,69.67
2023-01-07T17:54:21.394Z,69.56
2023-01-07T18:04:24.591Z,70.01
2023-01-07T18:14:29.107Z,71.86
2023-01-07T18:24:32.772Z,71.04
2023-01-07T18:34:37.244Z,71.52
2023-01-07T18:44:40.389Z,71.29
2023-01-07T18:54:45.810Z,70.71
2023-01-07T19:04:49.069Z,69.28
2023-01-07T19:14:53.597Z,68.91
2023-01-07T19:24:56.976Z,68.83
2023-01-07T19:35:01.421Z,68.98
2023-01-07T19:45:06.622Z,68.89
2023-01-07T19:55:11.271Z,68.59
2023-01-07T20:05:14.551Z,68.72
2023-01-07T20:15:19.098Z,69.15
2023-01-07T20:25:22.229Z,69.96
2023-01-07T20:35:26.707Z,68.94
2023-01-07T20:45:29.963Z,68.73
2023-01-07T20:55:35.112Z,68.28
2023-01-07T21:05:38.772Z,68.04
2023-01-07T21:15:43.254Z,68.94
2023-01-07T21:25:48.077Z,69.01
2023-01-07T21:35:52.621Z,68.81
2023-01-07T21:45:55.731Z,68.90
2023-01-07T21:56:06.305Z,68.90
2023-01-07T22:06:20.728Z,68.78
2023-01-07T22:16:26.919Z,69.41
2023-01-07T22:26:30.329Z,69.22
2023-01-07T22:36:39.495Z,69.68
2023-01-07T22:46:44.772Z,69.40
2023-01-07T22:56:49.970Z,69.29
2023-01-07T23:06:53.122Z,69.52
2023-01-07T23:16:59.031Z,70.08
2023-01-07T23:27:02.200Z,69.39
2023-01-07T23:37:06.993Z,71.41
2023-01-07T23:47:10.199Z,70.34
2023-01-07T23:57:14.902Z,70.63
